createdAt,value
2023-05-19T05:00:09.981Z,1020.75
2023-05-19T05:28:58.423Z,1020.84
2023-05-19T05:57:45.515Z,1020.74
2023-05-19T06:26:38.362Z,1020.7
2023-05-19T06:55:15.211Z,1020.74
2023-05-19T07:23:56.457Z,1020.6
2023-05-19T07:52:43.731Z,1020.29
2023-05-19T08:21:43.614Z,1020.02
2023-05-19T08:50:01.949Z,1019.98
2023-05-19T09:18:50.109Z,1019.78
2023-05-19T09:47:14.717Z,1019.63
2023-05-19T10:16:05.781Z,1019.58
2023-05-19T10:44:43.590Z,1019.57
2023-05-19T11:13:31.256Z,1019.55
2023-05-19T11:42:17.838Z,1019.45
2023-05-19T12:10:41.887Z,1019.55
2023-05-19T12:39:24.979Z,1019.37
2023-05-19T13:07:58.495Z,1019.34
2023-05-19T13:36:12.327Z,1019.13
2023-05-19T14:05:14.878Z,1019.04
2023-05-19T14:33:40.271Z,1019
2023-05-19T15:01:57.093Z,1019.03
2023-05-19T15:32:12.916Z,1019.03
2023-05-19T16:00:31.720Z,1018.83
2023-05-19T16:29:12.157Z,1018.84
2023-05-19T16:57:39.176Z,1018.69
2023-05-19T17:25:47.679Z,1018.58
2023-05-19T17:54:08.616Z,1018.72
2023-05-19T18:22:38.664Z,1018.72
2023-05-19T18:51:29.665Z,1018.58
2023-05-19T19:19:43.072Z,1018.71
2023-05-19T19:47:59.507Z,1018.82
2023-05-19T20:16:50.825Z,1018.85
2023-05-19T20:45:25.897Z,1018.68
2023-05-19T21:14:12.131Z,1018.59
2023-05-19T21:42:25.773Z,1018.24
2023-05-19T22:11:19.460Z,1018.1
2023-05-19T22:40:28.297Z,1017.86
2023-05-19T23:08:54.330Z,1017.69
2023-05-19T23:37:22.540Z,1017.4
